aviador You're here:

CYPY Decoded Metar

FORT CHIPEWYAN in AB, CANADA
Report Time2018-02-22 08:44:00
UTC Time2018-02-22 08:51:38
Flight Rules mvfr MVFR
Wind320° at 13 Gusting to 25 kt
W.Decomp.*RWY 03: 0.5 kt HW 13 kt LCW
W.Rank320° ranks 16
Current wind is above 320° avg. (7.5)
Visibility4828 m
Phenomena:Light Snow
Clouds:N/A
Expected CloudBase > 1,200 ft AGL from Temp-Dew spread
CeilingNone
Temp-12°C (ISA -25)
Dew Point-15°C (79% RH)
AAT-20.0°C
QNH1012 hPa
Density Alt-2,372 ft
Elevation761 ft
Report Wrong Elevation
Raw Report
SPECI CYPY 220844Z AUTO 32013G25KT 3SM -SN CLR M12/M15 A2989 RMK SLP147=

Extra information for CYPY:More info

Metar Taf Metar & Taf Last 4 Metars F.Rules Stats Wind Profile Meteogram Temp Stats Airport Information Weather charts Add Link Nearby VenuesMetar ALERT Operation Metar Decoded Social comments